createdAt,value
2022-10-17T00:00:45.674Z,15.45
2022-10-17T00:03:12.787Z,8.55
2022-10-17T00:05:44.891Z,11.18
2022-10-17T00:08:13.500Z,7.13
2022-10-17T00:10:40.717Z,12.23
2022-10-17T00:13:08.949Z,7.00
2022-10-17T00:15:36.580Z,9.00
2022-10-17T00:18:04.035Z,7.25
2022-10-17T00:20:32.835Z,6.30
2022-10-17T00:23:00.598Z,5.75
2022-10-17T00:25:27.551Z,10.07
2022-10-17T00:27:54.365Z,6.85
2022-10-17T00:30:21.193Z,6.93
2022-10-17T00:32:47.998Z,5.20
2022-10-17T00:35:14.899Z,7.68
2022-10-17T00:37:41.857Z,6.88
2022-10-17T00:40:09.703Z,8.85
2022-10-17T00:42:36.670Z,11.48
2022-10-17T00:45:09.358Z,6.22
2022-10-17T00:47:37.172Z,10.93
2022-10-17T00:50:06.902Z,10.25
2022-10-17T00:52:34.604Z,6.85
2022-10-17T00:55:26.618Z,7.38
2022-10-17T00:57:54.158Z,5.88
2022-10-17T01:00:21.489Z,9.43
2022-10-17T01:02:49.592Z,8.23
2022-10-17T01:05:18.059Z,11.38
2022-10-17T01:07:47.342Z,10.35
2022-10-17T01:10:14.933Z,8.75
2022-10-17T01:13:00.322Z,7.75
2022-10-17T01:15:49.743Z,9.30
2022-10-17T01:18:30.806Z,4.90
2022-10-17T01:21:18.396Z,7.82
2022-10-17T01:24:00.398Z,7.38
2022-10-17T01:26:42.251Z,9.20
2022-10-17T01:29:25.139Z,7.18
2022-10-17T01:32:04.269Z,11.93
2022-10-17T01:34:55.824Z,14.52
2022-10-17T01:37:28.236Z,4.72
2022-10-17T01:40:13.329Z,7.25
2022-10-17T01:42:48.450Z,9.45
2022-10-17T01:45:27.392Z,6.25
2022-10-17T01:47:56.157Z,8.88
2022-10-17T01:50:33.048Z,7.45
2022-10-17T01:53:08.812Z,10.52
2022-10-17T01:55:39.648Z,6.40
2022-10-17T01:58:33.354Z,10.95
2022-10-17T02:01:04.848Z,8.45
2022-10-17T02:03:34.453Z,9.60
2022-10-17T02:06:01.298Z,6.60
2022-10-17T02:08:39.897Z,9.50
2022-10-17T02:11:16.237Z,7.53
2022-10-17T02:14:37.637Z,11.07
2022-10-17T02:17:04.565Z,11.00
2022-10-17T02:19:34.524Z,9.32
2022-10-17T02:22:39.790Z,12.27
2022-10-17T02:28:56.806Z,10.35
2022-10-17T02:31:31.561Z,6.20
2022-10-17T02:34:05.036Z,12.75
2022-10-17T02:36:42.078Z,7.28
2022-10-17T02:41:54.856Z,8.95
2022-10-17T02:44:23.173Z,7.22
2022-10-17T02:47:01.857Z,10.05
2022-10-17T02:49:39.578Z,9.25
2022-10-17T02:52:12.399Z,8.77
2022-10-17T02:54:45.281Z,11.30
2022-10-17T02:57:15.153Z,9.52
2022-10-17T02:59:45.537Z,9.85
2022-10-17T03:02:12.543Z,12.85
2022-10-17T03:04:43.987Z,13.85
2022-10-17T03:07:10.979Z,10.27
2022-10-17T03:09:37.939Z,12.23
2022-10-17T03:12:05.538Z,10.85
2022-10-17T03:14:32.384Z,12.77
2022-10-17T03:16:59.339Z,10.25
2022-10-17T03:19:26.205Z,9.68
2022-10-17T03:21:53.153Z,13.18
2022-10-17T03:24:20.130Z,10.35
2022-10-17T03:29:14.486Z,11.30
2022-10-17T03:31:41.399Z,13.98
2022-10-17T03:34:08.311Z,10.75
2022-10-17T03:36:35.276Z,11.43
2022-10-17T03:39:02.215Z,11.77
2022-10-17T03:41:29.059Z,12.55
2022-10-17T03:43:55.889Z,9.05
2022-10-17T03:46:22.657Z,8.40
2022-10-17T03:48:49.739Z,8.98
2022-10-17T03:51:16.832Z,8.80
2022-10-17T03:53:43.702Z,9.10
2022-10-17T03:56:19.415Z,10.68
2022-10-17T03:58:46.694Z,12.27
2022-10-17T04:01:16.054Z,9.75
2022-10-17T04:03:43.699Z,10.82
2022-10-17T04:06:13.421Z,9.02
2022-10-17T04:08:40.633Z,10.18
2022-10-17T04:11:08.968Z,8.50
2022-10-17T04:13:36.375Z,12.70
2022-10-17T04:16:11.057Z,7.95
2022-10-17T04:18:37.839Z,7.97
2022-10-17T04:21:06.207Z,9.55
2022-10-17T04:23:34.005Z,6.38
2022-10-17T04:26:01.801Z,8.77
2022-10-17T04:28:29.186Z,6.97
2022-10-17T04:31:05.391Z,9.38
2022-10-17T04:33:32.856Z,7.30
2022-10-17T04:36:06.435Z,7.13
2022-10-17T04:38:34.425Z,7.07
2022-10-17T04:41:03.321Z,9.68
2022-10-17T04:43:35.538Z,8.27
2022-10-17T04:46:05.058Z,10.07
2022-10-17T04:48:32.201Z,12.35
2022-10-17T04:51:20.696Z,9.77
2022-10-17T04:53:50.595Z,10.43
2022-10-17T04:56:21.182Z,8.18
2022-10-17T04:58:49.774Z,15.80
2022-10-17T05:01:22.817Z,16.15
2022-10-17T05:03:49.812Z,10.57
2022-10-17T05:06:29.282Z,10.75
2022-10-17T05:08:57.788Z,8.57
2022-10-17T05:11:26.824Z,6.43
2022-10-17T05:13:59.456Z,13.57
2022-10-17T05:16:27.658Z,10.35
2022-10-17T05:18:56.759Z,11.07
2022-10-17T05:21:26.114Z,9.20
2022-10-17T05:23:53.195Z,9.05
2022-10-17T05:26:21.268Z,7.88
2022-10-17T05:28:48.578Z,17.10
2022-10-17T05:31:15.771Z,9.05
2022-10-17T05:33:42.756Z,8.88
2022-10-17T05:36:10.272Z,10.38
2022-10-17T05:38:37.152Z,10.57
2022-10-17T05:41:06.201Z,9.57
2022-10-17T05:43:34.354Z,13.02
2022-10-17T05:46:05.338Z,14.13
2022-10-17T05:48:32.508Z,12.95
2022-10-17T05:51:01.578Z,19.83
2022-10-17T05:53:32.252Z,11.15
2022-10-17T05:56:00.554Z,11.35
2022-10-17T06:01:15.725Z,27.45
2022-10-17T06:03:42.783Z,22.02
2022-10-17T06:06:12.855Z,22.30
2022-10-17T06:08:40.318Z,10.15
2022-10-17T06:11:10.122Z,14.98
2022-10-17T06:13:38.661Z,20.40
2022-10-17T06:16:06.469Z,16.17
2022-10-17T06:18:33.467Z,20.10
2022-10-17T06:21:09.266Z,19.10
2022-10-17T06:23:36.298Z,19.33
2022-10-17T06:26:05.560Z,13.77
2022-10-17T06:28:32.828Z,28.15
2022-10-17T06:30:59.697Z,20.40
2022-10-17T06:33:26.568Z,15.27
2022-10-17T06:35:54.799Z,15.07
2022-10-17T06:38:22.549Z,16.05
2022-10-17T06:40:49.964Z,15.32
2022-10-17T06:43:16.936Z,14.50
2022-10-17T06:45:47.597Z,15.05
2022-10-17T06:48:15.023Z,14.38
2022-10-17T06:50:41.863Z,14.63
2022-10-17T06:53:08.693Z,11.88
2022-10-17T06:55:35.689Z,17.20
2022-10-17T06:58:02.716Z,16.25
2022-10-17T07:00:29.789Z,19.10
2022-10-17T07:02:56.679Z,14.95
2022-10-17T07:05:23.452Z,18.70
2022-10-17T07:07:51.794Z,15.55
2022-10-17T07:10:18.942Z,15.20
2022-10-17T07:12:46.129Z,13.65
2022-10-17T07:15:13.352Z,16.42
2022-10-17T07:17:40.315Z,18.23
2022-10-17T07:20:08.059Z,19.77
2022-10-17T07:22:35.267Z,16.15
2022-10-17T07:25:02.228Z,15.13
2022-10-17T07:27:29.674Z,14.95
2022-10-17T07:29:57.089Z,16.45
2022-10-17T07:32:24.088Z,27.08
2022-10-17T07:34:50.968Z,14.02
2022-10-17T07:37:17.994Z,16.23
2022-10-17T07:39:45.064Z,14.60
2022-10-17T07:42:12.249Z,12.38
2022-10-17T07:44:39.482Z,17.58
2022-10-17T07:47:06.580Z,16.33
2022-10-17T07:49:33.617Z,11.90
2022-10-17T07:52:00.649Z,12.35
2022-10-17T07:54:27.768Z,14.43
2022-10-17T07:56:54.691Z,16.85
2022-10-17T07:59:21.745Z,11.65
2022-10-17T08:01:49.038Z,14.13
2022-10-17T08:04:17.308Z,10.90
2022-10-17T08:06:44.492Z,11.38
2022-10-17T08:09:11.581Z,16.65
2022-10-17T08:11:38.657Z,11.43
2022-10-17T08:14:05.603Z,12.30
2022-10-17T08:16:32.446Z,13.43
2022-10-17T08:18:59.972Z,12.68
2022-10-17T08:21:27.550Z,11.80
2022-10-17T08:23:54.860Z,12.85
2022-10-17T08:26:22.003Z,14.32
2022-10-17T08:28:49.667Z,15.57
2022-10-17T08:31:19.043Z,14.52
2022-10-17T08:33:47.376Z,13.77
2022-10-17T08:36:17.488Z,12.32
2022-10-17T08:38:47.990Z,15.57
2022-10-17T08:41:36.812Z,15.15
2022-10-17T08:44:22.150Z,14.55
2022-10-17T08:46:52.663Z,14.00
2022-10-17T08:49:39.642Z,13.18
2022-10-17T08:52:15.861Z,10.30
2022-10-17T08:54:46.297Z,11.43
2022-10-17T08:57:15.746Z,13.13
2022-10-17T08:59:44.596Z,9.98
2022-10-17T09:02:45.283Z,9.18
2022-10-17T09:05:27.211Z,15.13
2022-10-17T09:07:59.867Z,10.35
2022-10-17T09:10:57.862Z,10.15
2022-10-17T09:13:43.103Z,10.27
2022-10-17T09:16:12.732Z,11.65
2022-10-17T09:18:44.088Z,10.57
2022-10-17T09:21:43.825Z,10.05
2022-10-17T09:24:38.400Z,8.95
2022-10-17T09:27:15.579Z,6.75
2022-10-17T09:29:46.422Z,9.60
2022-10-17T09:32:19.356Z,8.45
2022-10-17T09:34:46.539Z,8.93
2022-10-17T09:37:15.454Z,8.23
2022-10-17T09:39:44.240Z,13.40
2022-10-17T09:42:15.869Z,8.75
2022-10-17T09:45:14.138Z,10.38
2022-10-17T09:50:25.767Z,9.48
2022-10-17T09:52:54.478Z,6.68
2022-10-17T09:55:43.352Z,6.32
2022-10-17T09:58:11.190Z,5.50
2022-10-17T10:00:47.689Z,7.90
2022-10-17T10:03:25.984Z,9.23
2022-10-17T10:06:06.356Z,9.98
2022-10-17T10:08:49.566Z,6.85
2022-10-17T10:11:17.780Z,6.30
2022-10-17T10:13:46.923Z,8.20
2022-10-17T10:16:22.131Z,7.90
2022-10-17T10:18:51.117Z,11.02
2022-10-17T10:21:26.683Z,9.23
2022-10-17T10:23:59.807Z,8.82
2022-10-17T10:26:46.611Z,6.53
2022-10-17T10:29:25.124Z,8.82
2022-10-17T10:31:53.775Z,7.05
2022-10-17T10:34:27.700Z,8.35
2022-10-17T10:37:16.262Z,5.22
2022-10-17T10:39:54.636Z,5.07
2022-10-17T10:42:30.342Z,7.25
2022-10-17T10:45:03.059Z,5.82
2022-10-17T10:47:32.506Z,6.97
2022-10-17T10:50:16.943Z,6.13
2022-10-17T10:52:50.855Z,6.65
2022-10-17T10:55:29.764Z,3.25
2022-10-17T10:58:06.587Z,5.70
2022-10-17T11:00:37.975Z,3.97
2022-10-17T11:03:12.955Z,4.97
2022-10-17T11:05:49.818Z,4.28
2022-10-17T11:08:35.435Z,4.70
2022-10-17T11:11:28.051Z,5.38
2022-10-17T11:14:08.743Z,7.28
2022-10-17T11:16:46.314Z,4.40
2022-10-17T11:19:35.266Z,5.50
2022-10-17T11:22:32.634Z,4.22
2022-10-17T11:25:13.482Z,5.53
2022-10-17T11:27:40.672Z,6.60
2022-10-17T11:30:16.107Z,6.68
2022-10-17T11:32:51.008Z,5.05
2022-10-17T11:35:36.730Z,6.32
2022-10-17T11:38:31.009Z,6.50
2022-10-17T11:41:00.154Z,5.72
2022-10-17T11:43:38.699Z,8.98
2022-10-17T11:46:16.217Z,12.88
2022-10-17T11:48:49.600Z,5.00
2022-10-17T11:54:16.321Z,5.13
2022-10-17T11:56:58.149Z,3.72
2022-10-17T11:59:53.554Z,7.50
2022-10-17T12:03:00.450Z,4.87
2022-10-17T12:05:44.968Z,2.75
2022-10-17T12:08:16.911Z,6.82
2022-10-17T12:11:02.946Z,4.90
2022-10-17T12:13:30.398Z,3.40
2022-10-17T12:16:18.412Z,3.63
2022-10-17T12:18:46.810Z,3.70
2022-10-17T12:21:13.890Z,3.72
2022-10-17T12:23:41.280Z,3.05
2022-10-17T12:26:10.629Z,3.50
2022-10-17T12:28:37.782Z,6.50
2022-10-17T12:31:32.682Z,4.13
2022-10-17T12:34:03.227Z,2.13
2022-10-17T12:36:30.275Z,5.82
2022-10-17T12:39:03.217Z,4.50
2022-10-17T12:41:39.592Z,4.82
2022-10-17T12:44:21.754Z,4.47
2022-10-17T12:47:10.698Z,3.22
2022-10-17T12:49:40.829Z,2.92
2022-10-17T12:52:16.837Z,20.90
2022-10-17T12:55:12.069Z,7.35
2022-10-17T12:57:48.374Z,3.58
2022-10-17T13:00:17.458Z,5.22
2022-10-17T13:02:46.037Z,5.20
2022-10-17T13:05:34.981Z,6.07
2022-10-17T13:08:05.968Z,3.50
2022-10-17T13:10:39.663Z,3.15
2022-10-17T13:13:16.216Z,6.07
2022-10-17T13:15:48.901Z,2.97
2022-10-17T13:18:26.343Z,3.38
2022-10-17T13:21:07.239Z,5.65
2022-10-17T13:23:38.172Z,7.57
2022-10-17T13:26:12.908Z,4.25
2022-10-17T13:28:40.050Z,4.55
2022-10-17T13:31:08.240Z,7.40
2022-10-17T13:33:40.809Z,4.40
2022-10-17T13:36:15.682Z,4.35
2022-10-17T13:38:43.310Z,3.78
2022-10-17T13:41:34.690Z,4.28
2022-10-17T13:44:04.586Z,2.75
2022-10-17T13:46:38.936Z,6.28
2022-10-17T13:49:17.725Z,6.43
2022-10-17T13:51:47.168Z,6.75
2022-10-17T13:54:32.529Z,3.97
2022-10-17T13:57:01.086Z,3.80
2022-10-17T13:59:40.280Z,4.38
2022-10-17T14:02:17.076Z,9.30
2022-10-17T14:05:15.027Z,4.80
2022-10-17T14:08:06.120Z,7.82
2022-10-17T14:10:35.411Z,8.38
2022-10-17T14:13:04.377Z,6.03
2022-10-17T14:15:34.178Z,6.95
2022-10-17T14:18:09.022Z,6.03
2022-10-17T14:23:44.249Z,9.27
2022-10-17T14:26:14.210Z,9.20
2022-10-17T14:28:42.846Z,6.43
2022-10-17T14:31:18.104Z,5.07
2022-10-17T14:33:50.571Z,8.40
2022-10-17T14:36:19.703Z,3.35
2022-10-17T14:38:51.169Z,6.63
2022-10-17T14:41:42.026Z,9.45
2022-10-17T14:44:22.767Z,3.83
2022-10-17T14:46:55.006Z,3.28
2022-10-17T14:49:28.595Z,4.55
2022-10-17T14:52:18.576Z,7.03
2022-10-17T14:54:56.813Z,4.03
2022-10-17T14:57:34.445Z,11.98
2022-10-17T15:00:01.245Z,5.35
2022-10-17T15:02:30.449Z,8.90
2022-10-17T15:04:57.697Z,10.10
2022-10-17T15:07:24.992Z,3.55
2022-10-17T15:09:53.430Z,5.22
2022-10-17T15:12:23.704Z,3.65
2022-10-17T15:14:51.841Z,3.28
2022-10-17T15:17:31.352Z,4.43
2022-10-17T15:19:59.093Z,4.47
2022-10-17T15:22:26.689Z,7.63
2022-10-17T15:24:53.877Z,10.27
2022-10-17T15:27:24.041Z,4.85
2022-10-17T15:29:51.731Z,7.32
2022-10-17T15:32:18.598Z,5.00
2022-10-17T15:34:45.609Z,7.90
2022-10-17T15:37:34.217Z,6.05
2022-10-17T15:40:01.641Z,12.32
2022-10-17T15:42:30.601Z,4.25
2022-10-17T15:44:58.435Z,4.10
2022-10-17T15:47:29.631Z,4.18
2022-10-17T15:49:57.227Z,3.50
2022-10-17T15:52:25.459Z,6.60
2022-10-17T15:54:53.465Z,4.55
2022-10-17T15:57:29.830Z,5.22
2022-10-17T15:59:59.658Z,7.97
2022-10-17T16:02:27.482Z,6.28
2022-10-17T16:04:54.323Z,5.90
2022-10-17T16:07:21.858Z,6.30
2022-10-17T16:09:48.696Z,8.55
2022-10-17T16:12:28.292Z,4.18
2022-10-17T16:14:55.623Z,5.60
2022-10-17T16:17:22.535Z,9.63
2022-10-17T16:19:50.132Z,10.93
2022-10-17T16:22:33.270Z,4.35
2022-10-17T16:25:07.832Z,5.68
2022-10-17T16:27:35.932Z,8.00
2022-10-17T16:30:06.953Z,4.75
2022-10-17T16:32:34.602Z,8.38
2022-10-17T16:35:01.571Z,8.18
2022-10-17T16:37:28.394Z,6.60
2022-10-17T16:39:55.231Z,8.40
2022-10-17T16:42:22.297Z,16.83
2022-10-17T16:44:50.246Z,9.43
2022-10-17T16:47:18.569Z,9.18
2022-10-17T16:49:45.718Z,11.60
2022-10-17T16:52:13.169Z,9.70
2022-10-17T16:54:40.608Z,7.88
2022-10-17T16:57:07.798Z,7.70
2022-10-17T16:59:35.165Z,6.28
2022-10-17T17:02:02.699Z,13.02
2022-10-17T17:04:30.147Z,11.18
2022-10-17T17:06:56.973Z,8.23
2022-10-17T17:09:24.213Z,12.65
2022-10-17T17:11:51.180Z,11.95
2022-10-17T17:14:18.314Z,8.70
2022-10-17T17:16:45.239Z,7.78
2022-10-17T17:19:14.206Z,11.02
2022-10-17T17:21:48.065Z,9.52
2022-10-17T17:24:15.093Z,9.45
2022-10-17T17:26:42.500Z,9.90
2022-10-17T17:29:10.900Z,9.68
2022-10-17T17:31:39.613Z,17.58
2022-10-17T17:34:07.301Z,15.30
2022-10-17T17:36:38.794Z,20.48
2022-10-17T17:39:08.921Z,20.05
2022-10-17T17:41:36.171Z,24.38
2022-10-17T17:44:04.159Z,11.98
2022-10-17T17:46:31.526Z,15.05
2022-10-17T17:48:58.939Z,15.13
2022-10-17T17:51:29.456Z,14.52
2022-10-17T17:53:57.428Z,15.43
2022-10-17T17:56:28.609Z,11.55
2022-10-17T17:59:01.432Z,13.43
2022-10-17T18:01:31.151Z,19.23
2022-10-17T18:03:59.756Z,13.38
2022-10-17T18:06:27.904Z,19.40
2022-10-17T18:08:58.663Z,12.73
2022-10-17T18:11:27.568Z,14.68
2022-10-17T18:14:00.288Z,12.25
2022-10-17T18:16:28.987Z,10.93
2022-10-17T18:18:56.097Z,12.75
2022-10-17T18:21:26.369Z,13.40
2022-10-17T18:23:53.456Z,9.98
2022-10-17T18:26:20.503Z,10.57
2022-10-17T18:28:48.003Z,11.52
2022-10-17T18:31:19.874Z,16.17
2022-10-17T18:33:47.144Z,13.02
2022-10-17T18:36:15.646Z,15.02
2022-10-17T18:38:45.277Z,13.38
2022-10-17T18:41:15.330Z,15.13
2022-10-17T18:43:44.106Z,15.85
2022-10-17T18:46:15.082Z,16.48
2022-10-17T18:48:48.026Z,18.15
2022-10-17T18:51:17.622Z,17.05
2022-10-17T18:53:47.480Z,18.38
2022-10-17T18:56:15.283Z,15.52
2022-10-17T18:58:42.395Z,16.45
2022-10-17T19:01:15.495Z,13.35
2022-10-17T19:03:44.253Z,17.02
2022-10-17T19:06:12.858Z,13.18
2022-10-17T19:08:40.832Z,12.23
2022-10-17T19:11:11.168Z,17.42
2022-10-17T19:13:39.416Z,15.98
2022-10-17T19:16:08.226Z,15.93
2022-10-17T19:18:36.373Z,15.57
2022-10-17T19:21:08.544Z,17.52
2022-10-17T19:23:36.445Z,16.90
2022-10-17T19:26:08.966Z,18.92
2022-10-17T19:28:37.624Z,16.08
2022-10-17T19:31:06.267Z,17.00
2022-10-17T19:33:34.232Z,11.38
2022-10-17T19:36:04.614Z,17.67
2022-10-17T19:38:31.846Z,14.07
2022-10-17T19:43:27.196Z,19.13
2022-10-17T19:45:56.389Z,19.77
2022-10-17T19:48:24.298Z,13.95
2022-10-17T19:50:51.473Z,16.13
2022-10-17T19:53:19.041Z,17.67
2022-10-17T19:55:45.953Z,17.92
2022-10-17T19:58:13.005Z,17.30
2022-10-17T20:00:49.297Z,15.65
2022-10-17T20:03:17.660Z,21.83
2022-10-17T20:05:45.708Z,15.68
2022-10-17T20:08:13.023Z,15.52
2022-10-17T20:10:40.402Z,13.95
2022-10-17T20:13:07.780Z,13.82
2022-10-17T20:15:35.048Z,16.98
2022-10-17T20:18:02.573Z,14.73
2022-10-17T20:20:29.673Z,14.45
2022-10-17T20:22:56.760Z,19.23
2022-10-17T20:25:23.674Z,13.38
2022-10-17T20:27:50.652Z,18.15
2022-10-17T20:30:17.691Z,12.77
2022-10-17T20:32:44.542Z,14.68
2022-10-17T20:35:11.352Z,16.80
2022-10-17T20:37:41.694Z,16.95
2022-10-17T20:40:33.482Z,13.50
2022-10-17T20:42:57.364Z,15.52
2022-10-17T20:45:37.501Z,19.35
2022-10-17T20:48:16.669Z,12.77
2022-10-17T20:50:44.734Z,17.33
2022-10-17T20:53:42.604Z,14.57
2022-10-17T20:56:05.191Z,18.25
2022-10-17T20:58:32.681Z,14.60
2022-10-17T21:01:07.414Z,16.95
2022-10-17T21:03:41.067Z,16.33
2022-10-17T21:06:11.209Z,16.85
2022-10-17T21:08:38.413Z,16.02
2022-10-17T21:11:09.535Z,19.48
2022-10-17T21:13:36.451Z,18.98
2022-10-17T21:16:12.627Z,20.83
2022-10-17T21:18:40.255Z,23.40
2022-10-17T21:21:11.603Z,20.65
2022-10-17T21:23:39.765Z,21.52
2022-10-17T21:26:09.194Z,15.93
2022-10-17T21:28:37.537Z,18.63
2022-10-17T21:31:25.473Z,18.08
2022-10-17T21:33:58.359Z,20.67
2022-10-17T21:36:26.554Z,21.90
2022-10-17T21:38:55.169Z,15.40
2022-10-17T21:41:24.999Z,17.50
2022-10-17T21:43:57.710Z,17.30
2022-10-17T21:46:25.278Z,14.93
2022-10-17T21:48:52.877Z,17.05
2022-10-17T21:51:22.460Z,19.23
2022-10-17T21:53:51.192Z,21.92
2022-10-17T21:56:24.165Z,17.38
2022-10-17T21:58:51.866Z,18.08
2022-10-17T22:01:25.508Z,23.13
2022-10-17T22:03:57.428Z,19.30
2022-10-17T22:06:45.020Z,20.35
2022-10-17T22:09:18.405Z,18.85
2022-10-17T22:11:48.064Z,20.38
2022-10-17T22:14:18.591Z,16.02
2022-10-17T22:16:46.650Z,18.58
2022-10-17T22:19:16.412Z,19.10
2022-10-17T22:21:43.433Z,20.55
2022-10-17T22:24:13.076Z,21.92
2022-10-17T22:26:40.562Z,17.58
2022-10-17T22:29:08.430Z,15.50
2022-10-17T22:31:36.432Z,18.70
2022-10-17T22:34:05.348Z,19.60
2022-10-17T22:36:33.905Z,17.48
2022-10-17T22:39:01.260Z,22.15
2022-10-17T22:41:28.117Z,19.42
2022-10-17T22:43:54.969Z,18.27
2022-10-17T22:46:22.048Z,24.38
2022-10-17T22:48:49.058Z,21.80
2022-10-17T22:51:16.351Z,19.42
2022-10-17T22:53:43.200Z,21.50
2022-10-17T22:56:15.359Z,25.70
2022-10-17T22:58:42.336Z,21.63
2022-10-17T23:01:17.414Z,29.13
2022-10-17T23:03:44.569Z,24.50
2022-10-17T23:06:11.908Z,21.00
2022-10-17T23:08:39.671Z,21.00
2022-10-17T23:11:07.805Z,17.50
2022-10-17T23:13:35.427Z,17.70
2022-10-17T23:16:02.659Z,31.30
2022-10-17T23:20:57.875Z,20.40
2022-10-17T23:23:24.927Z,22.10
2022-10-17T23:25:51.963Z,19.88
2022-10-17T23:28:19.329Z,21.05
2022-10-17T23:30:46.513Z,22.77
2022-10-17T23:33:14.013Z,24.98
2022-10-17T23:35:41.645Z,23.08
2022-10-17T23:38:10.315Z,19.02
2022-10-17T23:40:37.209Z,26.50
2022-10-17T23:43:04.484Z,20.33
2022-10-17T23:45:34.804Z,21.02
2022-10-17T23:48:04.794Z,23.88
2022-10-17T23:50:31.675Z,22.58
2022-10-17T23:52:58.463Z,18.52
2022-10-17T23:55:25.393Z,20.13
2022-10-17T23:57:52.242Z,21.50
